Decoded Metar for YBBN (BRISBANE in AUSTRALIA) (IATA:BNE) | Meteo·Mobile Aviation Weather
aviador You're here:

YBBN Decoded Metar

BRISBANE in AUSTRALIA
Report Time2018-08-16 18:00:00
UTC Time2018-08-16 18:18:22
Flight Rules vfr VFR
WindCalm
Visibility9999 m
Phenomena:Shallow Fog
Clouds:N/A
Expected CloudBase > 400 ft AGL from Temp-Dew spread
CeilingNone
Temp09°C (ISA -6)
Dew Point08°C (94% RH)
AAT8.6°C
QNH1012 hPa
Density Alt-522 ft
Elevation16 ft
Report Wrong Elevation
Raw Report
METAR YBBN 161800Z 00000KT 9999 MIFG NSC 09/08 Q1012 FM1900 25007KT
CAVOK=

Extra information for YBBN:More info

Metar Taf Metar & Taf Last 4 Metars F.Rules Stats Wind Profile Meteogram Temp Stats Airport Information Weather charts Add Link Nearby VenuesMetar ALERT Operation Metar Decoded Social comments